createdAt,value
2023-01-19T00:02:23.985Z,27.60
2023-01-19T00:05:30.309Z,27.48
2023-01-19T00:08:55.825Z,25.52
2023-01-19T00:12:19.894Z,26.95
2023-01-19T00:15:40.606Z,25.67
2023-01-19T00:19:04.732Z,25.30
2023-01-19T00:22:31.342Z,27.92
2023-01-19T00:25:43.875Z,25.83
2023-01-19T00:29:08.733Z,25.58
2023-01-19T00:32:32.875Z,26.50
2023-01-19T00:36:08.170Z,23.13
2023-01-19T00:39:24.232Z,25.10
2023-01-19T00:42:44.261Z,23.67
2023-01-19T00:45:52.583Z,22.75
2023-01-19T00:48:57.492Z,19.53
2023-01-19T00:52:05.443Z,21.38
2023-01-19T00:55:11.023Z,18.35
2023-01-19T00:58:26.988Z,18.27
2023-01-19T01:01:55.534Z,16.75
2023-01-19T01:05:19.446Z,16.43
2023-01-19T01:09:03.795Z,16.27
2023-01-19T01:12:24.544Z,15.85
2023-01-19T01:15:37.333Z,14.95
2023-01-19T01:18:40.727Z,13.52
2023-01-19T01:21:55.909Z,14.43
2023-01-19T01:25:13.616Z,12.85
2023-01-19T01:28:29.479Z,11.27
2023-01-19T01:31:51.402Z,12.10
2023-01-19T01:35:11.998Z,10.60
2023-01-19T01:38:22.171Z,10.03
2023-01-19T01:41:31.662Z,9.25
2023-01-19T01:44:52.673Z,9.13
2023-01-19T01:48:22.823Z,8.35
2023-01-19T01:52:01.403Z,7.50
2023-01-19T01:55:20.112Z,7.13
2023-01-19T01:58:40.899Z,6.97
2023-01-19T02:02:04.242Z,8.10
2023-01-19T02:05:43.527Z,6.20
2023-01-19T02:09:43.862Z,4.88
2023-01-19T02:13:21.647Z,5.50
2023-01-19T02:16:34.389Z,6.70
2023-01-19T02:19:47.930Z,4.93
2023-01-19T02:23:46.823Z,5.68
2023-01-19T02:27:20.998Z,4.68
2023-01-19T02:30:45.919Z,3.67
2023-01-19T02:33:54.755Z,2.78
2023-01-19T02:37:28.849Z,2.60
2023-01-19T02:40:57.773Z,2.67
2023-01-19T02:44:13.984Z,2.50
2023-01-19T02:47:32.001Z,2.17
2023-01-19T02:50:56.230Z,2.20
2023-01-19T02:54:18.158Z,1.92
2023-01-19T02:57:49.214Z,2.40
2023-01-19T03:01:38.970Z,1.98
2023-01-19T03:05:05.920Z,2.40
2023-01-19T03:08:38.441Z,1.67
2023-01-19T03:11:51.685Z,1.50
2023-01-19T03:15:02.526Z,1.88
2023-01-19T03:18:15.452Z,1.73
2023-01-19T03:21:22.307Z,1.20
2023-01-19T03:24:29.445Z,1.42
2023-01-19T03:27:56.084Z,2.17
2023-01-19T03:31:31.127Z,1.67
2023-01-19T03:34:51.128Z,2.17
2023-01-19T03:38:11.215Z,1.37
2023-01-19T03:41:45.086Z,0.95
2023-01-19T03:45:07.250Z,4.10
2023-01-19T03:48:18.337Z,1.30
2023-01-19T03:51:40.490Z,1.63
2023-01-19T03:54:50.885Z,2.23
2023-01-19T03:58:14.124Z,1.40
2023-01-19T04:01:43.253Z,1.30
2023-01-19T04:05:05.189Z,1.25
2023-01-19T04:08:34.044Z,1.08
2023-01-19T04:11:58.045Z,1.70
2023-01-19T04:15:19.059Z,1.17
2023-01-19T04:18:42.153Z,1.30
2023-01-19T04:22:04.284Z,1.52
2023-01-19T04:25:25.950Z,1.13
2023-01-19T04:28:45.220Z,0.67
2023-01-19T04:32:10.310Z,1.77
2023-01-19T04:35:14.439Z,1.02
2023-01-19T04:38:18.236Z,0.82
2023-01-19T04:41:27.158Z,0.52
2023-01-19T04:44:43.432Z,0.40
2023-01-19T04:48:05.947Z,0.93
2023-01-19T04:51:19.489Z,0.50
2023-01-19T04:54:23.111Z,0.55
2023-01-19T04:57:33.433Z,0.50
2023-01-19T05:00:40.163Z,0.30
2023-01-19T05:04:01.193Z,1.17
2023-01-19T05:07:14.322Z,0.45
2023-01-19T05:10:20.314Z,0.43
2023-01-19T05:13:33.840Z,0.30
2023-01-19T05:16:51.959Z,0.50
2023-01-19T05:20:03.989Z,0.10
2023-01-19T05:23:28.543Z,1.15
2023-01-19T05:26:55.612Z,0.57
2023-01-19T05:30:11.540Z,0.63
2023-01-19T05:33:35.780Z,0.87
2023-01-19T05:37:06.682Z,1.50
2023-01-19T05:40:23.611Z,1.08
2023-01-19T05:43:35.599Z,1.25
2023-01-19T05:46:58.869Z,1.30
2023-01-19T05:50:05.408Z,1.00
2023-01-19T05:53:23.991Z,1.73
2023-01-19T05:56:37.282Z,2.25
2023-01-19T05:59:41.886Z,1.42
2023-01-19T06:02:53.838Z,2.08
2023-01-19T06:06:01.532Z,1.57
2023-01-19T06:09:10.790Z,2.25
2023-01-19T06:12:27.766Z,1.70
2023-01-19T06:15:44.708Z,2.33
2023-01-19T06:19:01.552Z,1.85
2023-01-19T06:22:24.690Z,2.97
2023-01-19T06:26:01.755Z,2.80
2023-01-19T06:29:18.670Z,2.55
2023-01-19T06:32:34.935Z,2.85
2023-01-19T06:36:00.787Z,2.17
2023-01-19T06:39:14.612Z,4.97
2023-01-19T06:42:23.912Z,2.25
2023-01-19T06:45:34.405Z,2.78
2023-01-19T06:48:49.650Z,2.80
2023-01-19T06:52:13.727Z,27.08
2023-01-19T06:55:36.632Z,3.67
2023-01-19T06:58:55.345Z,2.58
2023-01-19T07:07:18.807Z,4.10
2023-01-19T07:11:26.101Z,4.00
2023-01-19T07:14:24.397Z,4.93
2023-01-19T07:17:35.252Z,5.30
2023-01-19T07:20:42.060Z,6.47
2023-01-19T07:24:00.475Z,7.60
2023-01-19T07:27:34.467Z,8.30
2023-01-19T07:30:59.753Z,8.03
2023-01-19T07:34:27.799Z,9.20
2023-01-19T07:37:36.140Z,9.20
2023-01-19T07:41:03.811Z,8.32
2023-01-19T07:44:36.426Z,11.27
2023-01-19T07:47:40.612Z,11.03
2023-01-19T07:57:01.631Z,11.00
2023-01-19T08:00:19.007Z,7.68
2023-01-19T08:03:28.685Z,7.22
2023-01-19T08:06:39.500Z,7.60
2023-01-19T08:09:44.716Z,9.15
2023-01-19T08:13:31.952Z,10.02
2023-01-19T08:16:36.746Z,9.82
2023-01-19T08:19:53.452Z,11.77
2023-01-19T08:23:05.712Z,10.63
2023-01-19T08:26:25.134Z,11.68
2023-01-19T08:29:34.045Z,12.20
2023-01-19T08:32:39.008Z,12.18
2023-01-19T08:35:55.813Z,11.98
2023-01-19T08:43:41.059Z,10.52
2023-01-19T08:53:12.960Z,13.23
2023-01-19T09:02:17.541Z,14.50
2023-01-19T09:05:51.343Z,14.23
2023-01-19T09:10:04.505Z,14.60
2023-01-19T09:13:49.518Z,14.93
2023-01-19T09:21:59.374Z,17.83
2023-01-19T09:25:28.525Z,17.13
2023-01-19T09:28:49.615Z,17.92
2023-01-19T09:32:25.913Z,20.58
2023-01-19T09:36:27.431Z,21.85
2023-01-19T09:41:08.901Z,24.00
2023-01-19T09:45:42.384Z,24.20
2023-01-19T09:49:35.219Z,23.20
2023-01-19T09:53:21.477Z,21.00
2023-01-19T10:02:19.528Z,25.10
2023-01-19T10:06:07.676Z,23.85
2023-01-19T10:14:41.971Z,27.48
2023-01-19T10:28:46.174Z,26.48
2023-01-19T10:52:03.566Z,23.02
2023-01-19T10:55:23.904Z,31.77
2023-01-19T10:58:31.304Z,23.95
2023-01-19T11:02:42.384Z,18.92
2023-01-19T11:10:23.519Z,22.63
2023-01-19T11:19:27.849Z,21.35
2023-01-19T11:23:29.012Z,21.48
2023-01-19T11:27:26.045Z,14.47
2023-01-19T11:31:14.703Z,23.38
2023-01-19T11:34:33.498Z,21.95
2023-01-19T11:38:03.817Z,24.40
2023-01-19T11:41:20.759Z,24.75
2023-01-19T11:44:40.130Z,26.50
2023-01-19T11:48:17.581Z,27.40
2023-01-19T11:51:36.830Z,27.23
2023-01-19T11:55:38.046Z,25.17
2023-01-19T11:59:01.282Z,27.90
2023-01-19T12:02:58.456Z,31.23
2023-01-19T12:07:01.791Z,64.10
2023-01-19T12:10:22.697Z,28.88
2023-01-19T12:20:02.350Z,29.33
2023-01-19T12:23:12.025Z,25.73
2023-01-19T12:26:43.054Z,27.67
2023-01-19T12:30:04.385Z,25.92
2023-01-19T12:33:26.398Z,26.80
2023-01-19T12:36:45.857Z,24.35
2023-01-19T12:40:34.885Z,25.73
2023-01-19T12:43:40.841Z,27.80
2023-01-19T12:47:06.742Z,27.30
2023-01-19T12:50:46.374Z,27.92
2023-01-19T12:54:35.015Z,24.58
2023-01-19T13:07:19.838Z,24.90
2023-01-19T13:10:59.945Z,21.80
2023-01-19T13:14:03.689Z,19.77
2023-01-19T13:27:38.772Z,19.95
2023-01-19T13:31:04.763Z,19.95
2023-01-19T13:34:15.230Z,20.98
2023-01-19T13:38:01.910Z,19.87
2023-01-19T13:41:05.203Z,20.92
2023-01-19T13:44:29.471Z,20.17
2023-01-19T13:47:44.555Z,21.15
2023-01-19T13:56:33.968Z,19.83
2023-01-19T14:04:33.141Z,22.90
2023-01-19T14:08:18.809Z,25.00
2023-01-19T14:11:25.012Z,25.33
2023-01-19T14:25:39.950Z,29.38
2023-01-19T14:28:51.288Z,24.83
2023-01-19T14:32:00.961Z,26.77
2023-01-19T14:35:05.095Z,31.27
2023-01-19T14:38:14.597Z,29.42
2023-01-19T14:41:30.863Z,31.58
2023-01-19T14:44:52.433Z,27.58
2023-01-19T14:48:17.886Z,29.25
2023-01-19T14:51:37.549Z,28.97
2023-01-19T14:54:54.521Z,31.67
2023-01-19T14:58:33.890Z,28.35
2023-01-19T15:01:44.638Z,27.98
2023-01-19T15:05:10.739Z,28.05
2023-01-19T15:08:29.472Z,31.83
2023-01-19T15:11:45.284Z,29.05
2023-01-19T15:15:02.767Z,28.15
2023-01-19T15:18:15.696Z,30.67
2023-01-19T15:21:23.857Z,32.05
2023-01-19T15:24:37.024Z,33.77
2023-01-19T15:27:58.918Z,38.85
2023-01-19T15:31:16.255Z,26.98
2023-01-19T15:34:32.296Z,30.35
2023-01-19T15:37:53.136Z,32.85
2023-01-19T15:41:18.972Z,30.80
2023-01-19T15:44:42.130Z,27.10
2023-01-19T15:48:09.132Z,32.08
2023-01-19T15:51:37.142Z,30.45
2023-01-19T15:54:57.161Z,30.65
2023-01-19T15:58:13.898Z,31.00
2023-01-19T16:01:40.271Z,32.60
2023-01-19T16:05:01.842Z,31.77
2023-01-19T16:08:18.844Z,33.63
2023-01-19T16:11:42.080Z,32.47
2023-01-19T16:15:03.159Z,36.13
2023-01-19T16:18:28.292Z,35.63
2023-01-19T16:21:54.960Z,33.63
2023-01-19T16:25:16.931Z,33.65
2023-01-19T16:28:34.194Z,33.08
2023-01-19T16:31:54.110Z,35.93
2023-01-19T16:35:17.466Z,36.22
2023-01-19T16:38:33.042Z,30.73
2023-01-19T16:42:08.004Z,32.33
2023-01-19T16:45:32.200Z,31.85
2023-01-19T16:48:54.113Z,31.27
2023-01-19T16:52:17.079Z,31.10
2023-01-19T16:55:38.313Z,25.67
2023-01-19T16:58:42.206Z,26.33
2023-01-19T17:01:46.618Z,24.48
2023-01-19T17:05:00.795Z,28.07
2023-01-19T17:08:03.827Z,25.30
2023-01-19T17:11:13.311Z,28.20
2023-01-19T17:14:20.582Z,26.58
2023-01-19T17:17:32.972Z,28.98
2023-01-19T17:20:49.118Z,26.93
2023-01-19T17:24:08.914Z,28.80
2023-01-19T17:28:51.537Z,27.20
2023-01-19T17:31:58.948Z,23.83
2023-01-19T17:35:20.540Z,30.00
2023-01-19T17:38:41.579Z,26.73
2023-01-19T17:41:51.708Z,29.73
2023-01-19T17:45:09.269Z,23.17
2023-01-19T17:48:26.015Z,22.75
2023-01-19T17:51:48.808Z,28.00
2023-01-19T17:55:11.542Z,25.17
2023-01-19T17:58:15.710Z,25.63
2023-01-19T18:01:28.619Z,25.23
2023-01-19T18:04:39.842Z,28.17
2023-01-19T18:07:43.318Z,28.33
2023-01-19T18:10:57.701Z,25.17
2023-01-19T18:14:11.777Z,27.00
2023-01-19T18:17:29.722Z,21.40
2023-01-19T18:20:50.705Z,23.58
2023-01-19T18:24:00.193Z,20.58
2023-01-19T18:27:24.715Z,24.43
2023-01-19T18:30:57.714Z,23.60
2023-01-19T18:34:14.893Z,22.30
2023-01-19T18:37:33.457Z,22.80
2023-01-19T18:40:56.690Z,25.48
2023-01-19T18:44:27.750Z,24.53
2023-01-19T18:47:50.795Z,23.95
2023-01-19T18:51:13.735Z,24.75
2023-01-19T18:54:30.976Z,24.45
2023-01-19T18:57:48.591Z,22.77
2023-01-19T19:01:13.797Z,24.33
2023-01-19T19:04:42.695Z,29.20
2023-01-19T19:08:03.713Z,23.70
2023-01-19T19:11:23.931Z,27.42
2023-01-19T19:14:40.867Z,28.02
2023-01-19T19:17:59.756Z,30.33
2023-01-19T19:21:07.575Z,29.25
2023-01-19T19:24:13.520Z,25.23
2023-01-19T19:27:24.225Z,26.42
2023-01-19T19:30:47.560Z,28.25
2023-01-19T19:34:09.491Z,28.50
2023-01-19T19:37:29.541Z,28.73
2023-01-19T19:41:00.167Z,25.65
2023-01-19T19:44:21.215Z,30.67
2023-01-19T19:47:44.571Z,27.38
2023-01-19T19:51:17.604Z,26.63
2023-01-19T19:54:32.340Z,25.42
2023-01-19T19:57:36.203Z,29.77
2023-01-19T20:00:40.200Z,24.65
2023-01-19T20:03:56.427Z,27.00
2023-01-19T20:07:07.967Z,27.70
2023-01-19T20:10:11.577Z,27.60
2023-01-19T20:13:19.305Z,27.08
2023-01-19T20:16:26.735Z,27.45
2023-01-19T20:19:45.767Z,25.48
2023-01-19T20:22:56.095Z,27.43
2023-01-19T20:26:05.107Z,23.00
2023-01-19T20:29:10.412Z,26.95
2023-01-19T20:32:26.769Z,28.58
2023-01-19T20:35:43.357Z,28.80
2023-01-19T20:38:50.837Z,27.90
2023-01-19T20:41:54.850Z,26.48
2023-01-19T20:45:09.574Z,30.40
2023-01-19T20:48:28.239Z,32.25
2023-01-19T20:51:51.502Z,29.48
2023-01-19T20:54:54.768Z,28.13
2023-01-19T20:58:02.681Z,29.30
2023-01-19T21:01:24.939Z,30.15
2023-01-19T21:04:30.545Z,30.63
2023-01-19T21:07:46.710Z,31.92
2023-01-19T21:11:03.477Z,31.20
2023-01-19T21:14:30.349Z,28.05
2023-01-19T21:17:46.762Z,29.35
2023-01-19T21:21:28.489Z,30.90
2023-01-19T21:24:40.005Z,24.55
2023-01-19T21:27:50.946Z,28.20
2023-01-19T21:31:14.485Z,28.90
2023-01-19T21:34:43.189Z,27.75
2023-01-19T21:38:07.269Z,27.55
2023-01-19T21:41:16.769Z,25.73
2023-01-19T21:44:26.594Z,29.90
2023-01-19T21:47:36.532Z,27.90
2023-01-19T21:50:43.376Z,28.15
2023-01-19T21:54:02.857Z,26.92
2023-01-19T21:57:06.442Z,30.60
2023-01-19T22:00:11.126Z,27.63
2023-01-19T22:03:32.081Z,27.75
2023-01-19T22:06:49.214Z,28.02
2023-01-19T22:09:58.921Z,28.83
2023-01-19T22:13:02.196Z,30.77
2023-01-19T22:16:18.680Z,28.83
2023-01-19T22:19:35.120Z,29.20
2023-01-19T22:22:41.601Z,27.02
2023-01-19T22:25:45.580Z,27.88
2023-01-19T22:28:53.491Z,31.05
2023-01-19T22:32:09.045Z,30.17
2023-01-19T22:35:35.084Z,25.90
2023-01-19T22:38:51.948Z,25.52
2023-01-19T22:42:14.987Z,27.88
2023-01-19T22:45:42.099Z,24.75
2023-01-19T22:49:06.963Z,27.17
2023-01-19T22:52:28.040Z,28.85
2023-01-19T22:55:48.961Z,26.95
2023-01-19T22:59:11.959Z,26.45
2023-01-19T23:02:28.147Z,26.58
2023-01-19T23:05:49.028Z,24.10
2023-01-19T23:09:19.168Z,23.73
2023-01-19T23:12:39.024Z,24.95
2023-01-19T23:16:02.207Z,23.85
2023-01-19T23:19:20.054Z,23.20
2023-01-19T23:22:30.889Z,23.33
2023-01-19T23:25:38.126Z,22.83
2023-01-19T23:28:44.167Z,23.02
2023-01-19T23:32:01.005Z,24.02
2023-01-19T23:35:11.876Z,24.60
2023-01-19T23:38:28.181Z,24.00
2023-01-19T23:41:44.857Z,24.77
2023-01-19T23:44:48.502Z,25.10
2023-01-19T23:47:55.400Z,22.67
2023-01-19T23:51:17.159Z,21.50
2023-01-19T23:54:36.929Z,20.97
2023-01-19T23:57:43.969Z,24.33
